Time;durP1;ratioP1;P1;durP2;ratioP2;P2;SDS_P1;SDS_P2;PMS_P1;PMS_P2;Temp;Humidity;BMP_temperature;BMP_pressure;BME280_temperature;BME280_humidity;BME280_pressure;Samples;Min_cycle;Max_cycle;Signal;HPM_P1;HPM_P2
2023/01/20 00:02:01;;;;;;;2.13;0.70;;;;;;;;;;4987542;28;20484;-72
2023/01/20 00:04:26;;;;;;;0.97;0.40;;;;;;;;;;4968045;28;20493;-74
2023/01/20 00:06:51;;;;;;;1.40;0.70;;;;;;;;;;4987672;28;20269;-74
2023/01/20 00:09:16;;;;;;;2.03;0.50;;;;;;;;;;4987828;28;20033;-73
2023/01/20 00:11:43;;;;;;;1.55;0.63;;;;;;;;;;4975714;28;20321;-73
2023/01/20 00:14:08;;;;;;;1.75;0.68;;;;;;;;;;4984513;28;20093;-73
2023/01/20 00:16:33;;;;;;;2.13;0.80;;;;;;;;;;4961561;28;20614;-72
2023/01/20 00:18:59;;;;;;;1.60;0.65;;;;;;;;;;4976734;28;20484;-73
2023/01/20 00:21:24;;;;;;;1.70;0.70;;;;;;;;;;4976381;28;20125;-73
2023/01/20 00:23:49;;;;;;;1.40;0.50;;;;;;;;;;4998370;28;20265;-73
2023/01/20 00:26:15;;;;;;;1.60;0.67;;;;;;;;;;4976675;28;20309;-75
2023/01/20 00:28:40;;;;;;;1.42;0.68;;;;;;;;;;4979796;28;20262;-73
2023/01/20 00:31:25;;;;;;;1.50;0.60;;;;;;;;;;4992889;28;20132;-73
2023/01/20 00:33:50;;;;;;;1.95;0.70;;;;;;;;;;4982062;28;20030;-73
2023/01/20 00:36:16;;;;;;;1.27;0.65;;;;;;;;;;4992847;28;20058;-73
2023/01/20 00:38:41;;;;;;;2.70;0.85;;;;;;;;;;4992723;28;20053;-73
2023/01/20 00:41:06;;;;;;;1.37;0.50;;;;;;;;;;4992704;28;20062;-72
2023/01/20 00:43:32;;;;;;;1.23;0.47;;;;;;;;;;4992707;28;20355;-71
2023/01/20 00:45:57;;;;;;;1.67;0.60;;;;;;;;;;4976379;28;20042;-72
2023/01/20 00:48:22;;;;;;;1.73;0.60;;;;;;;;;;4975444;28;20096;-71
2023/01/20 00:50:47;;;;;;;1.33;0.70;;;;;;;;;;5009695;28;20372;-74
2023/01/20 00:53:12;;;;;;;1.38;0.68;;;;;;;;;;4968440;28;20296;-73
2023/01/20 00:55:38;;;;;;;1.20;0.60;;;;;;;;;;4999834;28;20030;-73
2023/01/20 00:58:03;;;;;;;2.03;0.87;;;;;;;;;;4992394;28;20049;-73
2023/01/20 01:00:28;;;;;;;1.80;0.73;;;;;;;;;;4976152;28;20042;-72
2023/01/20 01:02:53;;;;;;;1.42;0.65;;;;;;;;;;4994193;28;20277;-72
2023/01/20 01:05:19;;;;;;;1.90;0.60;;;;;;;;;;4987202;28;20038;-73
2023/01/20 01:07:44;;;;;;;1.87;0.70;;;;;;;;;;5003490;28;20293;-73
2023/01/20 01:10:09;;;;;;;1.77;0.63;;;;;;;;;;4983505;28;20291;-74
2023/01/20 01:12:35;;;;;;;1.77;0.50;;;;;;;;;;4998889;28;20277;-74
2023/01/20 01:15:00;;;;;;;1.50;0.80;;;;;;;;;;4993928;28;20029;-73
2023/01/20 01:17:25;;;;;;;0.87;0.50;;;;;;;;;;4998458;28;20293;-73
2023/01/20 01:19:51;;;;;;;1.57;0.60;;;;;;;;;;5008677;28;20030;-73
2023/01/20 01:22:16;;;;;;;1.60;0.68;;;;;;;;;;5017923;28;20134;-73
2023/01/20 01:24:44;;;;;;;1.77;0.60;;;;;;;;;;4973242;28;20038;-73
2023/01/20 01:27:10;;;;;;;1.42;0.50;;;;;;;;;;4988852;28;20361;-73
2023/01/20 01:29:35;;;;;;;2.03;0.70;;;;;;;;;;4973270;28;20130;-73
2023/01/20 01:32:00;;;;;;;1.20;0.53;;;;;;;;;;4988983;28;20035;-73
2023/01/20 01:34:25;;;;;;;1.10;0.50;;;;;;;;;;4994785;28;20706;-73
2023/01/20 01:36:51;;;;;;;1.70;0.60;;;;;;;;;;5000775;28;20077;-73
2023/01/20 01:39:16;;;;;;;1.30;0.63;;;;;;;;;;4972666;28;20030;-73
2023/01/20 01:41:41;;;;;;;1.37;0.50;;;;;;;;;;4990090;28;20290;-74
2023/01/20 01:44:07;;;;;;;1.58;0.70;;;;;;;;;;4989097;28;20281;-75
2023/01/20 01:46:33;;;;;;;1.98;0.63;;;;;;;;;;4975781;28;20031;-74
2023/01/20 01:48:59;;;;;;;0.98;0.43;;;;;;;;;;4989019;28;20109;-72
2023/01/20 01:51:26;;;;;;;0.80;0.40;;;;;;;;;;4969405;28;20234;-72
2023/01/20 01:53:56;;;;;;;1.65;0.70;;;;;;;;;;4996994;28;20025;-72
2023/01/20 01:56:21;;;;;;;0.88;0.50;;;;;;;;;;4992965;28;20066;-73
2023/01/20 01:58:47;;;;;;;1.77;0.63;;;;;;;;;;4991597;28;20038;-73
2023/01/20 02:01:12;;;;;;;1.20;0.40;;;;;;;;;;4973932;28;20062;-73
2023/01/20 02:03:40;;;;;;;1.83;0.60;;;;;;;;;;4999383;28;20629;-72
2023/01/20 02:06:05;;;;;;;1.88;0.47;;;;;;;;;;4974943;28;20265;-73
2023/01/20 02:08:31;;;;;;;1.83;0.70;;;;;;;;;;4983911;28;20035;-73
2023/01/20 02:10:56;;;;;;;1.17;0.60;;;;;;;;;;4988288;28;20292;-73
2023/01/20 02:13:21;;;;;;;1.63;0.50;;;;;;;;;;4972030;28;20293;-73
2023/01/20 02:15:49;;;;;;;2.20;0.75;;;;;;;;;;4989562;28;20093;-73
2023/01/20 02:18:16;;;;;;;1.95;0.63;;;;;;;;;;4972364;28;20037;-73
2023/01/20 02:21:07;;;;;;;1.05;0.50;;;;;;;;;;4972478;28;20019;-73
2023/01/20 02:23:52;;;;;;;1.25;0.60;;;;;;;;;;4970591;28;20034;-73
2023/01/20 02:26:17;;;;;;;1.17;0.68;;;;;;;;;;4995832;28;20526;-74
2023/01/20 02:28:48;;;;;;;1.07;0.40;;;;;;;;;;4977341;28;20114;-73
2023/01/20 02:31:23;;;;;;;1.33;0.60;;;;;;;;;;4994049;28;20332;-73
2023/01/20 02:33:54;;;;;;;1.15;0.50;;;;;;;;;;4992394;28;20049;-73
2023/01/20 02:36:34;;;;;;;1.25;0.60;;;;;;;;;;4983217;28;20045;-72
2023/01/20 02:39:01;;;;;;;1.73;0.63;;;;;;;;;;4987043;28;20045;-73
2023/01/20 02:41:33;;;;;;;1.98;0.60;;;;;;;;;;4987893;28;20174;-73
2023/01/20 02:44:01;;;;;;;1.00;0.50;;;;;;;;;;4993571;28;20050;-73
2023/01/20 02:46:31;;;;;;;1.67;0.60;;;;;;;;;;4989848;28;20030;-73
2023/01/20 02:49:04;;;;;;;1.40;0.75;;;;;;;;;;4989238;28;20491;-73
2023/01/20 02:51:35;;;;;;;1.40;0.70;;;;;;;;;;4980853;28;20047;-73
2023/01/20 02:54:01;;;;;;;1.13;0.60;;;;;;;;;;4977000;28;20030;-72
2023/01/20 02:56:27;;;;;;;1.02;0.50;;;;;;;;;;5000795;28;20555;-73
2023/01/20 02:58:56;;;;;;;1.13;0.50;;;;;;;;;;4971731;28;20023;-75
2023/01/20 03:01:23;;;;;;;1.13;0.60;;;;;;;;;;4991531;28;20046;-72
2023/01/20 03:03:48;;;;;;;1.15;0.47;;;;;;;;;;4987816;28;20036;-74
2023/01/20 03:06:17;;;;;;;1.57;0.57;;;;;;;;;;4974474;28;20029;-72
2023/01/20 03:08:43;;;;;;;1.80;0.55;;;;;;;;;;4971293;28;20909;-72
2023/01/20 03:11:08;;;;;;;1.23;0.60;;;;;;;;;;4986480;28;20043;-73
2023/01/20 03:13:40;;;;;;;1.30;0.50;;;;;;;;;;4987175;28;20533;-74
2023/01/20 03:16:06;;;;;;;0.93;0.52;;;;;;;;;;4994120;28;20052;-74
2023/01/20 03:18:32;;;;;;;1.17;0.50;;;;;;;;;;4988630;28;20130;-73
2023/01/20 03:20:57;;;;;;;1.08;0.40;;;;;;;;;;4987192;28;21144;-73
2023/01/20 03:23:22;;;;;;;1.02;0.52;;;;;;;;;;4988805;28;20038;-73
2023/01/20 03:25:48;;;;;;;1.15;0.50;;;;;;;;;;4987141;28;20038;-73
2023/01/20 03:28:13;;;;;;;1.13;0.50;;;;;;;;;;4987123;28;20030;-72
2023/01/20 03:30:38;;;;;;;2.10;0.63;;;;;;;;;;4988561;28;20332;-73
2023/01/20 03:33:03;;;;;;;0.63;0.40;;;;;;;;;;4986058;28;20787;-72
2023/01/20 03:35:28;;;;;;;1.83;0.63;;;;;;;;;;5002631;28;20034;-73
2023/01/20 03:37:54;;;;;;;1.07;0.50;;;;;;;;;;5003267;28;20301;-72
2023/01/20 03:40:19;;;;;;;1.30;0.60;;;;;;;;;;4988552;28;20771;-73
2023/01/20 03:42:51;;;;;;;1.20;0.50;;;;;;;;;;4971438;28;20038;-72
2023/01/20 03:45:25;;;;;;;1.02;0.40;;;;;;;;;;4987310;28;20042;-73
2023/01/20 03:48:09;;;;;;;0.70;0.40;;;;;;;;;;4993111;28;20436;-73
2023/01/20 03:50:43;;;;;;;2.20;0.40;;;;;;;;;;5003066;28;20070;-74
2023/01/20 03:53:13;;;;;;;1.42;0.40;;;;;;;;;;4975409;28;20027;-73
2023/01/20 03:55:40;;;;;;;1.25;0.50;;;;;;;;;;4970281;28;20427;-73
2023/01/20 03:58:13;;;;;;;0.93;0.40;;;;;;;;;;4985549;28;20038;-73
2023/01/20 04:00:40;;;;;;;0.90;0.60;;;;;;;;;;4977906;28;20049;-73
2023/01/20 04:03:06;;;;;;;1.25;0.40;;;;;;;;;;4986361;28;20019;-74
2023/01/20 04:05:31;;;;;;;1.05;0.47;;;;;;;;;;4990507;28;20038;-73
2023/01/20 04:07:56;;;;;;;0.97;0.40;;;;;;;;;;4973964;28;20026;-74
2023/01/20 04:10:22;;;;;;;0.90;0.47;;;;;;;;;;4970197;28;20313;-73
2023/01/20 04:12:47;;;;;;;1.25;0.40;;;;;;;;;;4986465;28;20042;-73
2023/01/20 04:15:12;;;;;;;0.50;0.30;;;;;;;;;;4994757;28;20088;-74
2023/01/20 04:17:38;;;;;;;0.98;0.38;;;;;;;;;;4957682;28;20038;-73
2023/01/20 04:20:07;;;;;;;1.00;0.40;;;;;;;;;;4986539;28;20038;-73
2023/01/20 04:22:41;;;;;;;1.03;0.40;;;;;;;;;;4957084;28;20034;-73
2023/01/20 04:25:10;;;;;;;1.20;0.55;;;;;;;;;;4987869;28;20392;-74
2023/01/20 04:27:35;;;;;;;1.20;0.40;;;;;;;;;;4969335;28;20058;-73
2023/01/20 04:30:00;;;;;;;1.20;0.50;;;;;;;;;;4970021;28;20065;-73
2023/01/20 04:32:26;;;;;;;1.50;0.60;;;;;;;;;;4985860;28;20535;-73
2023/01/20 04:34:52;;;;;;;1.10;0.57;;;;;;;;;;4991211;28;20033;-73
2023/01/20 04:37:17;;;;;;;1.08;0.50;;;;;;;;;;4985890;28;20042;-73
2023/01/20 04:39:42;;;;;;;0.80;0.30;;;;;;;;;;5000288;28;20043;-72
2023/01/20 04:42:08;;;;;;;0.93;0.40;;;;;;;;;;4970419;28;20309;-73
2023/01/20 04:44:33;;;;;;;1.30;0.55;;;;;;;;;;4972296;28;20436;-75
2023/01/20 04:46:59;;;;;;;0.93;0.50;;;;;;;;;;5003133;28;20026;-74
2023/01/20 04:49:24;;;;;;;0.80;0.40;;;;;;;;;;4989432;28;20512;-74
2023/01/20 04:51:49;;;;;;;1.10;0.40;;;;;;;;;;4992325;28;20498;-73
2023/01/20 04:54:14;;;;;;;0.70;0.33;;;;;;;;;;4970151;28;20262;-74
2023/01/20 04:56:40;;;;;;;1.00;0.43;;;;;;;;;;4954089;28;20336;-75
2023/01/20 04:59:05;;;;;;;0.65;0.30;;;;;;;;;;4988319;28;20946;-73
2023/01/20 05:01:30;;;;;;;1.43;0.40;;;;;;;;;;4967994;28;20511;-73
2023/01/20 05:03:55;;;;;;;0.70;0.28;;;;;;;;;;4989634;28;20674;-74
2023/01/20 05:06:21;;;;;;;1.13;0.53;;;;;;;;;;4976951;28;20109;-73
2023/01/20 05:08:46;;;;;;;1.07;0.43;;;;;;;;;;4990953;28;20658;-73
2023/01/20 05:11:11;;;;;;;1.00;0.43;;;;;;;;;;4973208;28;20389;-73
2023/01/20 05:13:38;;;;;;;0.73;0.32;;;;;;;;;;4988870;28;20021;-72
2023/01/20 05:16:06;;;;;;;0.77;0.40;;;;;;;;;;5005714;28;20057;-73
2023/01/20 05:18:32;;;;;;;1.00;0.43;;;;;;;;;;4989635;28;20101;-73
2023/01/20 05:20:58;;;;;;;0.93;0.40;;;;;;;;;;4991359;28;20045;-72
2023/01/20 05:23:23;;;;;;;1.00;0.50;;;;;;;;;;5000832;28;20029;-73
2023/01/20 05:25:49;;;;;;;0.80;0.40;;;;;;;;;;4986628;28;20802;-72
2023/01/20 05:28:14;;;;;;;0.82;0.40;;;;;;;;;;5012365;28;20602;-73
2023/01/20 05:30:39;;;;;;;1.40;0.50;;;;;;;;;;5005541;28;20051;-72
2023/01/20 05:33:04;;;;;;;0.63;0.40;;;;;;;;;;4998314;28;20011;-72
2023/01/20 05:35:30;;;;;;;1.23;0.43;;;;;;;;;;4989035;28;20536;-73
2023/01/20 05:37:55;;;;;;;0.80;0.37;;;;;;;;;;4956786;28;20081;-73
2023/01/20 05:40:20;;;;;;;0.95;0.35;;;;;;;;;;4988968;28;20293;-73
2023/01/20 05:42:46;;;;;;;0.43;0.30;;;;;;;;;;4989915;28;20719;-74
2023/01/20 05:45:11;;;;;;;0.53;0.30;;;;;;;;;;4980981;28;20352;-72
2023/01/20 05:47:36;;;;;;;1.20;0.47;;;;;;;;;;4997328;28;20276;-72
2023/01/20 05:50:02;;;;;;;0.70;0.37;;;;;;;;;;4988192;28;20281;-72
2023/01/20 05:52:27;;;;;;;0.60;0.30;;;;;;;;;;4987052;28;20305;-73
2023/01/20 05:54:52;;;;;;;0.85;0.40;;;;;;;;;;4993810;28;20409;-73
2023/01/20 05:57:17;;;;;;;1.77;0.43;;;;;;;;;;5012623;28;20017;-72
2023/01/20 05:59:44;;;;;;;0.63;0.30;;;;;;;;;;4977651;28;20269;-71
2023/01/20 06:02:10;;;;;;;0.98;0.38;;;;;;;;;;4970693;28;20281;-72
2023/01/20 06:04:35;;;;;;;0.73;0.32;;;;;;;;;;4993163;28;20092;-72
2023/01/20 06:07:00;;;;;;;1.47;0.30;;;;;;;;;;4992994;28;20030;-72
2023/01/20 06:09:25;;;;;;;0.83;0.30;;;;;;;;;;4996623;28;20292;-72
2023/01/20 06:11:51;;;;;;;1.25;0.40;;;;;;;;;;4988479;28;20030;-72
2023/01/20 06:14:16;;;;;;;1.48;0.40;;;;;;;;;;4988775;28;20026;-72
2023/01/20 06:16:41;;;;;;;1.00;0.40;;;;;;;;;;4988501;28;20033;-75
2023/01/20 06:19:06;;;;;;;1.87;0.33;;;;;;;;;;4974501;28;20052;-72
2023/01/20 06:21:32;;;;;;;2.70;0.40;;;;;;;;;;4974720;28;20121;-72
2023/01/20 06:23:57;;;;;;;1.90;0.50;;;;;;;;;;4978535;28;20387;-72
2023/01/20 06:26:22;;;;;;;1.00;0.40;;;;;;;;;;4991533;28;20026;-78
2023/01/20 06:28:47;;;;;;;1.15;0.35;;;;;;;;;;5009083;28;20033;-72
2023/01/20 06:31:13;;;;;;;1.47;0.50;;;;;;;;;;4992665;28;20055;-74
2023/01/20 06:33:39;;;;;;;0.63;0.40;;;;;;;;;;5005563;28;20274;-74
2023/01/20 06:36:04;;;;;;;1.77;0.40;;;;;;;;;;5007456;28;20096;-74
2023/01/20 06:38:30;;;;;;;1.13;0.38;;;;;;;;;;4984733;28;20360;-76
2023/01/20 06:40:58;;;;;;;1.17;0.40;;;;;;;;;;4971866;28;20066;-74
2023/01/20 06:43:24;;;;;;;0.60;0.20;;;;;;;;;;4990551;28;20114;-77
2023/01/20 06:45:49;;;;;;;1.48;0.45;;;;;;;;;;4991549;28;20033;-75
2023/01/20 06:48:14;;;;;;;2.50;0.57;;;;;;;;;;5001198;28;20049;-79
2023/01/20 06:50:40;;;;;;;2.47;0.40;;;;;;;;;;4975113;28;20048;-76
2023/01/20 06:53:05;;;;;;;0.80;0.37;;;;;;;;;;4989334;28;20286;-79
2023/01/20 06:55:30;;;;;;;0.90;0.33;;;;;;;;;;4992021;28;20787;-75
2023/01/20 06:57:55;;;;;;;1.23;0.50;;;;;;;;;;4990866;28;20304;-75
2023/01/20 07:00:21;;;;;;;1.00;0.50;;;;;;;;;;4975762;28;20554;-73
2023/01/20 07:02:49;;;;;;;0.93;0.50;;;;;;;;;;4974736;28;20068;-73
2023/01/20 07:05:14;;;;;;;1.23;0.50;;;;;;;;;;4972963;28;20034;-72
2023/01/20 07:07:42;;;;;;;0.52;0.30;;;;;;;;;;4989444;28;20788;-73
2023/01/20 07:10:08;;;;;;;0.95;0.40;;;;;;;;;;4987077;28;20065;-73
2023/01/20 07:12:33;;;;;;;0.90;0.40;;;;;;;;;;4986771;28;20074;-73
2023/01/20 07:14:58;;;;;;;0.77;0.37;;;;;;;;;;4971238;28;20053;-73
2023/01/20 07:17:24;;;;;;;1.80;0.33;;;;;;;;;;4988229;28;20300;-74
2023/01/20 07:19:49;;;;;;;0.60;0.30;;;;;;;;;;4971861;28;20038;-74
2023/01/20 07:22:14;;;;;;;0.83;0.40;;;;;;;;;;4972208;28;20331;-74
2023/01/20 07:24:39;;;;;;;1.40;0.40;;;;;;;;;;4989347;28;20042;-72
2023/01/20 07:27:04;;;;;;;1.40;0.80;;;;;;;;;;4991146;28;20081;-78
2023/01/20 07:29:30;;;;;;;4.38;1.50;;;;;;;;;;4989943;28;20041;-74
2023/01/20 07:31:55;;;;;;;1.43;0.40;;;;;;;;;;4971426;28;20185;-75
2023/01/20 07:34:20;;;;;;;1.70;0.50;;;;;;;;;;4994975;28;20355;-80
2023/01/20 07:36:45;;;;;;;1.58;0.40;;;;;;;;;;4974779;28;20289;-73
2023/01/20 07:39:11;;;;;;;0.83;0.40;;;;;;;;;;4980163;28;20041;-75
2023/01/20 07:41:37;;;;;;;1.65;0.40;;;;;;;;;;4996749;28;20056;-76
2023/01/20 07:44:02;;;;;;;0.95;0.40;;;;;;;;;;4978603;28;20113;-74
2023/01/20 07:46:27;;;;;;;0.43;0.23;;;;;;;;;;4994810;28;20469;-75
2023/01/20 07:48:52;;;;;;;1.08;0.52;;;;;;;;;;4985226;28;20515;-77
2023/01/20 07:51:18;;;;;;;1.50;0.63;;;;;;;;;;5004664;28;20060;-77
2023/01/20 07:53:47;;;;;;;1.17;0.57;;;;;;;;;;4971955;28;20038;-76
2023/01/20 07:56:16;;;;;;;0.80;0.43;;;;;;;;;;4968930;28;20040;-75
2023/01/20 07:58:44;;;;;;;1.42;0.50;;;;;;;;;;4985798;28;20049;-76
2023/01/20 08:01:29;;;;;;;1.35;0.50;;;;;;;;;;4974615;28;20053;-76
2023/01/20 08:03:55;;;;;;;1.80;0.50;;;;;;;;;;4968825;28;20114;-74
2023/01/20 08:06:20;;;;;;;2.97;0.50;;;;;;;;;;4986297;28;20118;-71
2023/01/20 08:08:46;;;;;;;1.27;0.40;;;;;;;;;;4984709;28;20045;-74
2023/01/20 08:11:12;;;;;;;3.40;0.90;;;;;;;;;;4989724;28;20081;-77
2023/01/20 08:13:38;;;;;;;1.00;0.40;;;;;;;;;;4987775;28;20305;-76
2023/01/20 08:16:04;;;;;;;1.83;0.50;;;;;;;;;;4988923;28;20025;-75
2023/01/20 08:18:29;;;;;;;1.75;0.60;;;;;;;;;;4972217;28;20092;-77
2023/01/20 08:20:55;;;;;;;1.52;0.50;;;;;;;;;;4985973;28;20050;-78
2023/01/20 08:23:20;;;;;;;0.90;0.50;;;;;;;;;;4989881;28;20111;-77
2023/01/20 08:25:45;;;;;;;1.10;0.63;;;;;;;;;;4986900;28;20520;-76
2023/01/20 08:28:10;;;;;;;1.67;0.60;;;;;;;;;;4985790;28;20023;-74
2023/01/20 08:30:36;;;;;;;1.58;0.52;;;;;;;;;;4985865;28;20336;-75
2023/01/20 08:33:01;;;;;;;1.90;0.63;;;;;;;;;;4987785;28;20110;-75
2023/01/20 08:35:26;;;;;;;1.80;0.80;;;;;;;;;;4973110;28;20285;-73
2023/01/20 08:37:51;;;;;;;1.50;0.60;;;;;;;;;;4988047;28;20026;-73
2023/01/20 08:40:16;;;;;;;1.77;0.67;;;;;;;;;;4999296;28;20332;-74
2023/01/20 08:42:42;;;;;;;1.30;0.67;;;;;;;;;;4975316;28;20282;-74
2023/01/20 08:45:07;;;;;;;1.40;0.50;;;;;;;;;;4992518;28;20854;-74
2023/01/20 08:47:43;;;;;;;1.63;0.60;;;;;;;;;;4974789;28;20277;-75
2023/01/20 08:50:10;;;;;;;1.95;0.60;;;;;;;;;;5004506;28;20149;-75
2023/01/20 08:52:36;;;;;;;2.05;0.75;;;;;;;;;;4972305;28;20046;-73
2023/01/20 08:55:01;;;;;;;1.17;0.70;;;;;;;;;;4975927;28;20045;-77
2023/01/20 08:57:27;;;;;;;1.38;0.50;;;;;;;;;;4991873;28;20285;-75
2023/01/20 08:59:52;;;;;;;1.00;0.63;;;;;;;;;;4992198;28;20535;-76
2023/01/20 09:02:18;;;;;;;2.08;0.60;;;;;;;;;;5008794;28;20277;-84
2023/01/20 09:04:43;;;;;;;1.53;0.70;;;;;;;;;;4979808;28;20046;-78
2023/01/20 09:07:11;;;;;;;1.90;0.80;;;;;;;;;;4983974;28;20041;-72
2023/01/20 09:09:37;;;;;;;0.90;0.50;;;;;;;;;;4989745;28;20101;-74
2023/01/20 09:12:03;;;;;;;2.92;0.70;;;;;;;;;;4969280;28;20142;-76
2023/01/20 09:14:28;;;;;;;1.55;0.60;;;;;;;;;;4984730;28;20031;-75
2023/01/20 09:16:53;;;;;;;1.17;0.60;;;;;;;;;;4989139;28;20551;-75
2023/01/20 09:19:18;;;;;;;1.15;0.60;;;;;;;;;;4991409;28;20125;-76
2023/01/20 09:21:44;;;;;;;1.17;0.70;;;;;;;;;;4972962;28;20852;-74
2023/01/20 09:24:09;;;;;;;1.97;0.60;;;;;;;;;;4991936;28;20054;-74
2023/01/20 09:26:37;;;;;;;1.70;0.77;;;;;;;;;;4989120;28;20328;-74
2023/01/20 09:29:09;;;;;;;2.08;0.70;;;;;;;;;;4990315;28;20065;-74
2023/01/20 09:31:45;;;;;;;2.20;0.80;;;;;;;;;;4990379;28;20034;-76
2023/01/20 09:34:11;;;;;;;1.52;0.70;;;;;;;;;;4989994;28;20109;-76
2023/01/20 09:36:36;;;;;;;1.85;0.77;;;;;;;;;;4991535;28;20027;-76
2023/01/20 09:43:52;;;;;;;1.83;0.68;;;;;;;;;;5014093;28;20061;-73
2023/01/20 09:44:47;;;;;;;2.70;0.68;;;;;;;;;;4991289;28;20030;-79
2023/01/20 09:47:20;;;;;;;1.88;0.65;;;;;;;;;;4990800;28;20027;-78
2023/01/20 09:55:55;;;;;;;1.88;1.00;;;;;;;;;;4942439;28;20070;-79
2023/01/20 09:58:21;;;;;;;1.60;0.70;;;;;;;;;;4990181;28;20491;-73
2023/01/20 10:00:47;;;;;;;2.92;1.00;;;;;;;;;;4992687;28;20045;-73
2023/01/20 10:03:15;;;;;;;2.83;0.80;;;;;;;;;;4988934;28;20038;-73
2023/01/20 10:05:40;;;;;;;1.67;0.70;;;;;;;;;;4989280;28;20401;-73
2023/01/20 10:08:26;;;;;;;2.28;0.70;;;;;;;;;;4991044;28;20036;-73
2023/01/20 10:10:53;;;;;;;15.48;2.78;;;;;;;;;;4984453;28;20046;-75
2023/01/20 10:13:18;;;;;;;3.60;1.00;;;;;;;;;;4959160;28;20026;-75
2023/01/20 10:15:46;;;;;;;3.80;0.95;;;;;;;;;;5004852;28;20018;-76
2023/01/20 10:18:14;;;;;;;4.25;0.82;;;;;;;;;;4996836;28;20020;-76
2023/01/20 10:20:39;;;;;;;4.53;0.80;;;;;;;;;;4990827;28;20041;-76
2023/01/20 10:23:06;;;;;;;2.57;0.90;;;;;;;;;;4990307;28;20038;-74
2023/01/20 10:25:31;;;;;;;2.72;1.00;;;;;;;;;;4989774;28;20318;-75
2023/01/20 10:27:58;;;;;;;2.80;0.90;;;;;;;;;;5005029;28;20082;-74
2023/01/20 10:30:24;;;;;;;3.00;1.10;;;;;;;;;;4973440;28;20060;-74
2023/01/20 10:33:04;;;;;;;2.03;0.88;;;;;;;;;;4997684;28;20022;-75
2023/01/20 10:35:30;;;;;;;3.70;0.88;;;;;;;;;;4992285;28;20034;-74
2023/01/20 10:37:57;;;;;;;3.05;0.98;;;;;;;;;;4974335;28;20660;-77
2023/01/20 10:40:23;;;;;;;2.08;0.82;;;;;;;;;;5001840;28;20062;-74
2023/01/20 10:42:48;;;;;;;1.85;0.80;;;;;;;;;;5002165;28;20042;-76
2023/01/20 10:45:18;;;;;;;2.10;1.00;;;;;;;;;;4962441;28;20034;-75
2023/01/20 10:47:57;;;;;;;2.50;1.00;;;;;;;;;;4988163;28;20472;-75
2023/01/20 10:50:22;;;;;;;2.92;1.00;;;;;;;;;;4993225;28;20037;-76
2023/01/20 10:52:50;;;;;;;3.33;0.90;;;;;;;;;;4991996;28;20584;-76
2023/01/20 10:55:35;;;;;;;3.20;0.93;;;;;;;;;;5006078;28;20062;-77
2023/01/20 10:58:03;;;;;;;2.92;1.00;;;;;;;;;;4991492;28;20030;-75
2023/01/20 11:00:28;;;;;;;2.63;1.08;;;;;;;;;;4991571;28;20037;-76
2023/01/20 11:02:54;;;;;;;1.55;0.80;;;;;;;;;;4986563;28;20034;-74
2023/01/20 11:05:20;;;;;;;3.20;1.00;;;;;;;;;;4991011;28;20132;-74
2023/01/20 11:07:46;;;;;;;2.08;0.90;;;;;;;;;;5006655;28;20042;-75
2023/01/20 11:10:15;;;;;;;3.70;0.90;;;;;;;;;;4991263;28;20146;-77
2023/01/20 11:12:41;;;;;;;2.85;0.73;;;;;;;;;;4986795;28;20068;-75
2023/01/20 11:15:14;;;;;;;3.13;0.90;;;;;;;;;;5008895;28;20125;-74
2023/01/20 11:17:40;;;;;;;2.78;1.13;;;;;;;;;;5007118;28;20045;-74
2023/01/20 11:20:05;;;;;;;2.15;0.80;;;;;;;;;;4990162;28;20031;-75
2023/01/20 11:22:32;;;;;;;1.85;0.90;;;;;;;;;;4992180;28;20085;-78
2023/01/20 11:24:57;;;;;;;2.03;1.17;;;;;;;;;;4992024;28;20038;-76
2023/01/20 11:27:24;;;;;;;3.40;1.13;;;;;;;;;;4997215;28;20052;-77
2023/01/20 11:29:59;;;;;;;2.25;1.20;;;;;;;;;;5007237;28;20149;-76
2023/01/20 11:32:34;;;;;;;2.88;1.10;;;;;;;;;;4973113;28;20546;-74
2023/01/20 11:35:00;;;;;;;3.70;1.13;;;;;;;;;;4990191;28;20491;-72
2023/01/20 11:37:26;;;;;;;2.95;1.08;;;;;;;;;;4988654;28;20034;-72
2023/01/20 11:39:51;;;;;;;2.90;1.02;;;;;;;;;;4990095;28;20145;-71
2023/01/20 11:42:19;;;;;;;2.63;1.10;;;;;;;;;;4991500;28;20104;-73
2023/01/20 11:44:48;;;;;;;2.92;1.33;;;;;;;;;;4985355;28;20783;-70
2023/01/20 11:47:27;;;;;;;1.95;1.20;;;;;;;;;;5004858;28;20038;-71
2023/01/20 11:50:07;;;;;;;2.58;1.02;;;;;;;;;;4989262;28;20031;-74
2023/01/20 11:52:34;;;;;;;3.42;1.25;;;;;;;;;;4994010;28;20050;-73
2023/01/20 11:55:08;;;;;;;3.53;1.35;;;;;;;;;;4969683;28;20014;-75
2023/01/20 11:57:34;;;;;;;4.10;1.52;;;;;;;;;;4982715;28;20065;-71
2023/01/20 11:59:59;;;;;;;2.40;1.20;;;;;;;;;;4987409;28;20052;-72
2023/01/20 12:02:26;;;;;;;2.77;1.20;;;;;;;;;;4995103;28;20109;-73
2023/01/20 12:04:55;;;;;;;2.40;1.30;;;;;;;;;;4973215;28;20045;-71
2023/01/20 12:07:28;;;;;;;2.83;1.45;;;;;;;;;;5000839;28;20035;-72
2023/01/20 12:09:54;;;;;;;2.20;1.30;;;;;;;;;;4970823;28;20292;-77
2023/01/20 12:12:27;;;;;;;3.08;1.40;;;;;;;;;;5003768;28;20034;-74
2023/01/20 12:15:01;;;;;;;2.55;1.30;;;;;;;;;;4984032;28;20030;-73
2023/01/20 12:17:36;;;;;;;2.53;1.40;;;;;;;;;;4998468;28;20129;-78
2023/01/20 12:20:09;;;;;;;1.98;1.10;;;;;;;;;;4989634;28;20158;-76
2023/01/20 12:22:46;;;;;;;3.55;1.40;;;;;;;;;;4983999;28;20126;-74
2023/01/20 12:25:14;;;;;;;3.67;1.50;;;;;;;;;;4985506;28;20046;-74
2023/01/20 12:27:44;;;;;;;2.20;1.23;;;;;;;;;;4985470;28;20038;-75
2023/01/20 12:30:27;;;;;;;2.63;1.30;;;;;;;;;;4985275;28;20034;-74
2023/01/20 12:32:53;;;;;;;2.90;1.42;;;;;;;;;;4987698;28;20062;-74
2023/01/20 12:35:18;;;;;;;3.00;1.50;;;;;;;;;;4986510;28;20154;-74
2023/01/20 12:37:45;;;;;;;2.83;1.30;;;;;;;;;;4947433;28;20061;-75
2023/01/20 12:40:10;;;;;;;3.85;1.70;;;;;;;;;;4975069;28;20125;-76
2023/01/20 12:42:44;;;;;;;3.43;1.70;;;;;;;;;;4989337;28;20065;-75
2023/01/20 12:45:28;;;;;;;2.22;1.10;;;;;;;;;;4992405;28;20301;-74
2023/01/20 12:48:13;;;;;;;2.90;1.50;;;;;;;;;;5003487;28;20030;-74
2023/01/20 12:50:48;;;;;;;2.67;1.35;;;;;;;;;;4985655;28;20076;-73
2023/01/20 12:53:20;;;;;;;3.20;1.20;;;;;;;;;;4988615;28;20041;-74
2023/01/20 12:55:47;;;;;;;3.53;1.10;;;;;;;;;;5005170;28;20157;-74
2023/01/20 12:58:28;;;;;;;3.10;1.65;;;;;;;;;;4991304;28;20019;-75
2023/01/20 13:01:02;;;;;;;2.83;1.58;;;;;;;;;;4995001;28;20056;-74
2023/01/20 13:03:33;;;;;;;2.78;1.50;;;;;;;;;;4991774;28;20484;-73
2023/01/20 13:06:06;;;;;;;4.43;1.50;;;;;;;;;;4996549;28;20034;-73
2023/01/20 13:08:36;;;;;;;2.75;1.38;;;;;;;;;;4975506;28;20035;-74
2023/01/20 13:11:10;;;;;;;3.47;1.55;;;;;;;;;;5005426;28;20035;-74
2023/01/20 13:13:47;;;;;;;3.03;1.40;;;;;;;;;;5006705;28;20030;-75
2023/01/20 13:16:17;;;;;;;3.47;1.60;;;;;;;;;;4990591;28;20034;-74
2023/01/20 13:18:42;;;;;;;;;;;;;;;;;;4989963;28;20102;-75
2023/01/20 13:21:11;;;;;;;2.50;1.40;;;;;;;;;;5006590;28;19982;-74
2023/01/20 13:23:36;;;;;;;2.78;1.23;;;;;;;;;;4990881;28;20045;-72
2023/01/20 13:26:02;;;;;;;2.13;1.10;;;;;;;;;;4989885;28;20110;-72
2023/01/20 13:28:28;;;;;;;2.95;1.40;;;;;;;;;;4992009;28;20035;-73
2023/01/20 13:30:54;;;;;;;2.88;1.52;;;;;;;;;;4975949;28;20046;-74
2023/01/20 13:33:39;;;;;;;2.17;1.10;;;;;;;;;;4990851;28;20023;-73
2023/01/20 13:36:15;;;;;;;2.83;1.30;;;;;;;;;;4989565;28;20035;-75
2023/01/20 13:38:41;;;;;;;2.60;1.40;;;;;;;;;;4980141;28;20038;-74
2023/01/20 13:41:09;;;;;;;2.65;1.50;;;;;;;;;;4990210;28;20584;-74
2023/01/20 13:43:35;;;;;;;2.85;1.25;;;;;;;;;;4989647;28;20022;-75
2023/01/20 13:46:03;;;;;;;3.35;1.38;;;;;;;;;;4990527;28;20012;-75
2023/01/20 13:48:32;;;;;;;2.85;1.30;;;;;;;;;;4993753;28;20015;-72
2023/01/20 13:51:16;;;;;;;2.13;1.20;;;;;;;;;;4991418;28;20077;-74
2023/01/20 13:53:44;;;;;;;1.92;1.10;;;;;;;;;;4989554;28;20058;-71
2023/01/20 13:56:25;;;;;;;2.30;1.20;;;;;;;;;;4988493;28;20034;-73
2023/01/20 13:58:51;;;;;;;2.70;1.35;;;;;;;;;;4988605;28;20038;-72
2023/01/20 14:01:16;;;;;;;2.65;1.23;;;;;;;;;;4991001;28;20117;-73
2023/01/20 14:03:41;;;;;;;2.33;1.02;;;;;;;;;;4981715;28;20037;-73
2023/01/20 14:06:12;;;;;;;2.20;1.30;;;;;;;;;;4969671;28;20030;-73
2023/01/20 14:08:38;;;;;;;2.17;1.35;;;;;;;;;;4990469;28;20030;-73
2023/01/20 14:11:08;;;;;;;2.67;1.20;;;;;;;;;;5006950;28;20045;-76
2023/01/20 14:13:33;;;;;;;4.55;1.27;;;;;;;;;;4974045;28;20505;-73
2023/01/20 14:16:00;;;;;;;2.90;1.20;;;;;;;;;;4997192;28;20044;-73
2023/01/20 14:18:25;;;;;;;3.08;1.10;;;;;;;;;;4992098;28;20803;-73
2023/01/20 14:21:01;;;;;;;1.80;1.10;;;;;;;;;;4982172;28;20105;-74
2023/01/20 14:23:27;;;;;;;2.63;1.08;;;;;;;;;;4990478;28;20846;-74
2023/01/20 14:25:56;;;;;;;2.92;1.50;;;;;;;;;;4990931;28;20261;-74
2023/01/20 14:28:21;;;;;;;4.53;1.10;;;;;;;;;;4974439;28;20130;-74
2023/01/20 14:30:46;;;;;;;1.77;0.87;;;;;;;;;;4994219;28;20109;-74
2023/01/20 14:33:13;;;;;;;1.97;1.10;;;;;;;;;;4982083;28;20823;-75
2023/01/20 14:35:38;;;;;;;2.38;1.17;;;;;;;;;;4975419;28;20281;-75
2023/01/20 14:38:03;;;;;;;1.92;0.90;;;;;;;;;;4974684;28;20045;-74
2023/01/20 14:40:33;;;;;;;2.50;1.30;;;;;;;;;;4990293;28;20073;-75
2023/01/20 14:42:59;;;;;;;2.45;1.20;;;;;;;;;;4971791;28;20675;-75
2023/01/20 14:45:25;;;;;;;2.03;1.05;;;;;;;;;;4990339;28;20031;-74
2023/01/20 14:47:51;;;;;;;2.72;1.25;;;;;;;;;;4973748;28;20034;-74
2023/01/20 14:50:16;;;;;;;2.42;1.20;;;;;;;;;;4973806;28;20057;-75
2023/01/20 14:52:42;;;;;;;3.05;1.10;;;;;;;;;;4974150;28;20432;-74
2023/01/20 14:55:26;;;;;;;1.83;1.02;;;;;;;;;;5014979;28;20035;-74